Cherskiy, Russia
Current Conditions -  °F | °C
As of 1:00 PM on Friday 21 Nov 2014 (Local Time) from UHMA Reporting Station
Broken Clouds Broken Clouds  
Wind Chill: -9°   Ceiling: 8000
Heat Index:   Visibility: 6mi
Dew Point:   Wind: 16mph
Humidity: 85%   Direction: 350°N
Pressure: 29.62"   Gusts: NA
Location:  68.75°N, 161.3°E
Report Text: UHMA 210200Z 35007MPS 9999 SCT040 BKN080 M13/M15 Q1003 NOSIGRMK QFE748/0998 883///42
Loading
Personal Weather Stations






























Interactive Weather Map New forecast layout! Learn more

10-Day Weather Forecast

Advertisements
Track Severe Weather on mobile